sensor_id;sensor_type;location;lat;lon;timestamp;pressure;altitude;pressure_sealevel;temperature;humidity
13348;BME280;6743;49.934;9.138;2022-07-30T00:01:59;100424.22;;;18.62;100.00
13348;BME280;6743;49.934;9.138;2022-07-30T00:04:26;100424.66;;;18.59;100.00
13348;BME280;6743;49.934;9.138;2022-07-30T00:06:52;100424.22;;;18.55;100.00
13348;BME280;6743;49.934;9.138;2022-07-30T00:09:18;100417.44;;;18.53;100.00
13348;BME280;6743;49.934;9.138;2022-07-30T00:11:44;100437.84;;;18.54;100.00
13348;BME280;6743;49.934;9.138;2022-07-30T00:14:10;100435.81;;;18.49;100.00
13348;BME280;6743;49.934;9.138;2022-07-30T00:16:36;100440.19;;;18.43;100.00
13348;BME280;6743;49.934;9.138;2022-07-30T00:19:02;100421.22;;;18.32;100.00
13348;BME280;6743;49.934;9.138;2022-07-30T00:21:29;100448.44;;;18.42;100.00
13348;BME280;6743;49.934;9.138;2022-07-30T00:23:55;100438.53;;;18.42;100.00
13348;BME280;6743;49.934;9.138;2022-07-30T00:26:21;100439.75;;;18.40;100.00
13348;BME280;6743;49.934;9.138;2022-07-30T00:28:47;100440.00;;;18.38;100.00
13348;BME280;6743;49.934;9.138;2022-07-30T00:31:13;100448.91;;;18.32;100.00
13348;BME280;6743;49.934;9.138;2022-07-30T00:33:39;100450.53;;;18.33;100.00
13348;BME280;6743;49.934;9.138;2022-07-30T00:36:05;100448.25;;;18.37;100.00
13348;BME280;6743;49.934;9.138;2022-07-30T00:38:31;100446.41;;;18.37;100.00
13348;BME280;6743;49.934;9.138;2022-07-30T00:40:58;100437.91;;;18.40;100.00
13348;BME280;6743;49.934;9.138;2022-07-30T00:43:24;100439.34;;;18.43;100.00
13348;BME280;6743;49.934;9.138;2022-07-30T00:45:50;100435.00;;;18.42;100.00
13348;BME280;6743;49.934;9.138;2022-07-30T00:48:16;100424.09;;;18.30;100.00
13348;BME280;6743;49.934;9.138;2022-07-30T00:50:42;100421.41;;;18.37;100.00
13348;BME280;6743;49.934;9.138;2022-07-30T00:53:08;100424.28;;;18.35;100.00
13348;BME280;6743;49.934;9.138;2022-07-30T00:55:34;100417.69;;;18.31;100.00
13348;BME280;6743;49.934;9.138;2022-07-30T00:58:00;100425.53;;;18.26;100.00
13348;BME280;6743;49.934;9.138;2022-07-30T01:00:27;100415.84;;;18.19;100.00
13348;BME280;6743;49.934;9.138;2022-07-30T01:02:53;100413.81;;;18.14;100.00
13348;BME280;6743;49.934;9.138;2022-07-30T01:05:19;100418.78;;;18.10;100.00
13348;BME280;6743;49.934;9.138;2022-07-30T01:07:45;100418.78;;;18.10;100.00
13348;BME280;6743;49.934;9.138;2022-07-30T01:10:13;100412.16;;;18.13;100.00
13348;BME280;6743;49.934;9.138;2022-07-30T01:12:41;100412.78;;;18.15;100.00
13348;BME280;6743;49.934;9.138;2022-07-30T01:15:09;100403.25;;;18.12;100.00
13348;BME280;6743;49.934;9.138;2022-07-30T01:17:36;100407.22;;;18.10;100.00
13348;BME280;6743;49.934;9.138;2022-07-30T01:20:05;100412.16;;;18.06;100.00
13348;BME280;6743;49.934;9.138;2022-07-30T01:22:44;100418.19;;;18.02;100.00
13348;BME280;6743;49.934;9.138;2022-07-30T01:25:23;100408.66;;;17.99;100.00
13348;BME280;6743;49.934;9.138;2022-07-30T01:27:56;100405.59;;;17.96;100.00
13348;BME280;6743;49.934;9.138;2022-07-30T01:30:26;100409.31;;;17.95;100.00
13348;BME280;6743;49.934;9.138;2022-07-30T01:32:54;100402.47;;;17.99;100.00
13348;BME280;6743;49.934;9.138;2022-07-30T01:35:22;100407.44;;;17.95;100.00
13348;BME280;6743;49.934;9.138;2022-07-30T01:37:51;100404.13;;;17.93;100.00
13348;BME280;6743;49.934;9.138;2022-07-30T01:40:18;100405.59;;;17.89;100.00
13348;BME280;6743;49.934;9.138;2022-07-30T01:42:49;100414.69;;;17.88;100.00
13348;BME280;6743;49.934;9.138;2022-07-30T01:45:21;100406.63;;;17.82;100.00
13348;BME280;6743;49.934;9.138;2022-07-30T01:47:49;100404.97;;;17.81;100.00
13348;BME280;6743;49.934;9.138;2022-07-30T01:50:17;100402.94;;;17.83;100.00
13348;BME280;6743;49.934;9.138;2022-07-30T01:52:45;100406.22;;;17.78;100.00
13348;BME280;6743;49.934;9.138;2022-07-30T01:55:15;100406.44;;;17.77;100.00
13348;BME280;6743;49.934;9.138;2022-07-30T01:57:44;100396.94;;;17.67;100.00
13348;BME280;6743;49.934;9.138;2022-07-30T02:00:12;100408.72;;;17.73;100.00
13348;BME280;6743;49.934;9.138;2022-07-30T02:02:39;100405.00;;;17.74;100.00
13348;BME280;6743;49.934;9.138;2022-07-30T02:05:06;100405.81;;;17.75;100.00
13348;BME280;6743;49.934;9.138;2022-07-30T02:07:36;100413.03;;;17.74;100.00
13348;BME280;6743;49.934;9.138;2022-07-30T02:10:06;100410.75;;;17.71;100.00
13348;BME280;6743;49.934;9.138;2022-07-30T02:12:38;100421.50;;;17.71;100.00
13348;BME280;6743;49.934;9.138;2022-07-30T02:15:13;100416.34;;;17.69;100.00
13348;BME280;6743;49.934;9.138;2022-07-30T02:17:43;100420.66;;;17.70;100.00
13348;BME280;6743;49.934;9.138;2022-07-30T02:20:11;100427.28;;;17.75;100.00
13348;BME280;6743;49.934;9.138;2022-07-30T02:22:41;100423.34;;;17.77;100.00
13348;BME280;6743;49.934;9.138;2022-07-30T02:25:09;100426.84;;;17.78;100.00
13348;BME280;6743;49.934;9.138;2022-07-30T02:27:39;100422.94;;;17.80;100.00
13348;BME280;6743;49.934;9.138;2022-07-30T02:30:08;100424.41;;;17.83;100.00
13348;BME280;6743;49.934;9.138;2022-07-30T02:32:38;100429.53;;;17.84;100.00
13348;BME280;6743;49.934;9.138;2022-07-30T02:35:12;100430.16;;;17.86;100.00
13348;BME280;6743;49.934;9.138;2022-07-30T02:37:41;100437.37;;;17.86;100.00
13348;BME280;6743;49.934;9.138;2022-07-30T02:40:09;100440.91;;;17.86;100.00
13348;BME280;6743;49.934;9.138;2022-07-30T02:42:37;100440.06;;;17.86;100.00
13348;BME280;6743;49.934;9.138;2022-07-30T02:45:05;100443.59;;;17.86;100.00
13348;BME280;6743;49.934;9.138;2022-07-30T02:47:33;100446.47;;;17.85;100.00
13348;BME280;6743;49.934;9.138;2022-07-30T02:50:01;100450.81;;;17.86;100.00
13348;BME280;6743;49.934;9.138;2022-07-30T02:52:29;100432.66;;;17.75;100.00
13348;BME280;6743;49.934;9.138;2022-07-30T02:54:58;100457.19;;;17.85;100.00
13348;BME280;6743;49.934;9.138;2022-07-30T02:57:26;100458.25;;;17.84;100.00
13348;BME280;6743;49.934;9.138;2022-07-30T02:59:54;100457.44;;;17.83;100.00
13348;BME280;6743;49.934;9.138;2022-07-30T03:02:22;100456.38;;;17.84;100.00
13348;BME280;6743;49.934;9.138;2022-07-30T03:04:49;100459.88;;;17.85;100.00
13348;BME280;6743;49.934;9.138;2022-07-30T03:07:18;100460.50;;;17.87;100.00
13348;BME280;6743;49.934;9.138;2022-07-30T03:09:46;100478.06;;;17.89;100.00
13348;BME280;6743;49.934;9.138;2022-07-30T03:12:13;100474.37;;;17.90;100.00
13348;BME280;6743;49.934;9.138;2022-07-30T03:14:39;100470.63;;;17.91;100.00
13348;BME280;6743;49.934;9.138;2022-07-30T03:17:06;100468.75;;;17.92;100.00
13348;BME280;6743;49.934;9.138;2022-07-30T03:19:36;100478.28;;;17.94;100.00
13348;BME280;6743;49.934;9.138;2022-07-30T03:22:05;100477.25;;;17.95;100.00
13348;BME280;6743;49.934;9.138;2022-07-30T03:24:32;100473.28;;;17.98;100.00
13348;BME280;6743;49.934;9.138;2022-07-30T03:27:00;100465.06;;;17.93;100.00
13348;BME280;6743;49.934;9.138;2022-07-30T03:29:28;100480.13;;;18.00;100.00
13348;BME280;6743;49.934;9.138;2022-07-30T03:31:55;100482.81;;;18.00;100.00
13348;BME280;6743;49.934;9.138;2022-07-30T03:34:22;100481.34;;;17.98;100.00
13348;BME280;6743;49.934;9.138;2022-07-30T03:36:49;100482.19;;;17.98;100.00
13348;BME280;6743;49.934;9.138;2022-07-30T03:39:17;100487.53;;;17.98;100.00
13348;BME280;6743;49.934;9.138;2022-07-30T03:41:43;100478.47;;;17.99;100.00
13348;BME280;6743;49.934;9.138;2022-07-30T03:44:10;100486.50;;;17.99;100.00
13348;BME280;6743;49.934;9.138;2022-07-30T03:46:37;100485.69;;;17.99;100.00
13348;BME280;6743;49.934;9.138;2022-07-30T03:49:04;100465.25;;;17.91;100.00
13348;BME280;6743;49.934;9.138;2022-07-30T03:51:30;100482.19;;;17.98;100.00
13348;BME280;6743;49.934;9.138;2022-07-30T03:53:57;100473.31;;;17.91;100.00
13348;BME280;6743;49.934;9.138;2022-07-30T03:56:24;100488.37;;;17.99;100.00
13348;BME280;6743;49.934;9.138;2022-07-30T03:58:50;100490.22;;;17.98;100.00
13348;BME280;6743;49.934;9.138;2022-07-30T04:01:16;100497.44;;;17.98;100.00
13348;BME280;6743;49.934;9.138;2022-07-30T04:03:42;100495.81;;;17.97;100.00
13348;BME280;6743;49.934;9.138;2022-07-30T04:06:08;100497.87;;;17.95;100.00
13348;BME280;6743;49.934;9.138;2022-07-30T04:08:34;100497.25;;;17.93;100.00
13348;BME280;6743;49.934;9.138;2022-07-30T04:11:00;100501.81;;;17.92;100.00
13348;BME280;6743;49.934;9.138;2022-07-30T04:13:26;100499.94;;;17.93;100.00
13348;BME280;6743;49.934;9.138;2022-07-30T04:15:57;100506.13;;;17.93;100.00
13348;BME280;6743;49.934;9.138;2022-07-30T04:18:30;100513.16;;;17.94;100.00
13348;BME280;6743;49.934;9.138;2022-07-30T04:20:58;100508.63;;;17.95;100.00
13348;BME280;6743;49.934;9.138;2022-07-30T04:23:28;100509.84;;;17.92;100.00
13348;BME280;6743;49.934;9.138;2022-07-30T04:25:55;100505.94;;;17.88;100.00
13348;BME280;6743;49.934;9.138;2022-07-30T04:28:21;100515.84;;;17.94;100.00
13348;BME280;6743;49.934;9.138;2022-07-30T04:30:47;100513.16;;;17.94;100.00
13348;BME280;6743;49.934;9.138;2022-07-30T04:33:13;100516.69;;;17.95;100.00
13348;BME280;6743;49.934;9.138;2022-07-30T04:35:40;100511.94;;;17.90;100.00
13348;BME280;6743;49.934;9.138;2022-07-30T04:38:06;100524.72;;;17.95;100.00
13348;BME280;6743;49.934;9.138;2022-07-30T04:40:34;100526.38;;;17.96;100.00
13348;BME280;6743;49.934;9.138;2022-07-30T04:43:00;100527.81;;;17.98;100.00
13348;BME280;6743;49.934;9.138;2022-07-30T04:45:26;100526.19;;;17.97;100.00
13348;BME280;6743;49.934;9.138;2022-07-30T04:47:52;100538.78;;;17.97;100.00
13348;BME280;6743;49.934;9.138;2022-07-30T04:50:20;100522.44;;;17.98;100.00
13348;BME280;6743;49.934;9.138;2022-07-30T04:52:48;100525.97;;;17.99;100.00
13348;BME280;6743;49.934;9.138;2022-07-30T04:55:15;100534.25;;;18.04;100.00
13348;BME280;6743;49.934;9.138;2022-07-30T04:57:43;100529.69;;;18.04;100.00
13348;BME280;6743;49.934;9.138;2022-07-30T05:00:12;100533.19;;;18.05;100.00
13348;BME280;6743;49.934;9.138;2022-07-30T05:02:39;100522.25;;;18.00;100.00
13348;BME280;6743;49.934;9.138;2022-07-30T05:05:06;100531.13;;;18.07;100.00
13348;BME280;6743;49.934;9.138;2022-07-30T05:07:33;100532.78;;;18.08;100.00
13348;BME280;6743;49.934;9.138;2022-07-30T05:10:00;100530.72;;;18.10;100.00
13348;BME280;6743;49.934;9.138;2022-07-30T05:12:31;100542.50;;;18.09;100.00
13348;BME280;6743;49.934;9.138;2022-07-30T05:14:57;100536.09;;;18.10;100.00
13348;BME280;6743;49.934;9.138;2022-07-30T05:17:23;100541.47;;;18.10;100.00
13348;BME280;6743;49.934;9.138;2022-07-30T05:19:49;100543.13;;;18.11;100.00
13348;BME280;6743;49.934;9.138;2022-07-30T05:22:15;100542.88;;;18.12;100.00
13348;BME280;6743;49.934;9.138;2022-07-30T05:24:41;100555.09;;;18.15;100.00
13348;BME280;6743;49.934;9.138;2022-07-30T05:27:08;100547.84;;;18.16;100.00
13348;BME280;6743;49.934;9.138;2022-07-30T05:29:34;100551.16;;;18.18;100.00
13348;BME280;6743;49.934;9.138;2022-07-30T05:32:00;100549.09;;;18.20;100.00
13348;BME280;6743;49.934;9.138;2022-07-30T05:34:26;100547.03;;;18.22;100.00
13348;BME280;6743;49.934;9.138;2022-07-30T05:36:52;100546.81;;;18.23;100.00
13348;BME280;6743;49.934;9.138;2022-07-30T05:39:18;100548.47;;;18.24;100.00
13348;BME280;6743;49.934;9.138;2022-07-30T05:41:44;100543.31;;;18.16;100.00
13348;BME280;6743;49.934;9.138;2022-07-30T05:44:10;100561.28;;;18.29;100.00
13348;BME280;6743;49.934;9.138;2022-07-30T05:46:36;100566.66;;;18.29;100.00
13348;BME280;6743;49.934;9.138;2022-07-30T05:49:02;100566.84;;;18.27;100.00
13348;BME280;6743;49.934;9.138;2022-07-30T05:51:29;100566.03;;;18.27;100.00
13348;BME280;6743;49.934;9.138;2022-07-30T05:53:55;100563.13;;;18.28;100.00
13348;BME280;6743;49.934;9.138;2022-07-30T05:56:21;100570.38;;;18.28;100.00
13348;BME280;6743;49.934;9.138;2022-07-30T05:58:47;100567.88;;;18.26;100.00
13348;BME280;6743;49.934;9.138;2022-07-30T06:01:14;100562.09;;;18.29;100.00
13348;BME280;6743;49.934;9.138;2022-07-30T06:03:40;100571.81;;;18.37;100.00
13348;BME280;6743;49.934;9.138;2022-07-30T06:06:06;100570.34;;;18.41;100.00
13348;BME280;6743;49.934;9.138;2022-07-30T06:08:33;100569.13;;;18.43;100.00
13348;BME280;6743;49.934;9.138;2022-07-30T06:10:59;100576.53;;;18.48;100.00
13348;BME280;6743;49.934;9.138;2022-07-30T06:13:25;100578.63;;;18.53;100.00
13348;BME280;6743;49.934;9.138;2022-07-30T06:15:51;100581.53;;;18.58;100.00
13348;BME280;6743;49.934;9.138;2022-07-30T06:18:18;100580.06;;;18.62;100.00
13348;BME280;6743;49.934;9.138;2022-07-30T06:20:44;100584.22;;;18.64;100.00
13348;BME280;6743;49.934;9.138;2022-07-30T06:23:10;100587.09;;;18.63;100.00
13348;BME280;6743;49.934;9.138;2022-07-30T06:25:37;100594.34;;;18.62;100.00
13348;BME280;6743;49.934;9.138;2022-07-30T06:28:03;100592.47;;;18.63;100.00
13348;BME280;6743;49.934;9.138;2022-07-30T06:30:29;100597.22;;;18.61;100.00
13348;BME280;6743;49.934;9.138;2022-07-30T06:32:55;100598.88;;;18.62;100.00
13348;BME280;6743;49.934;9.138;2022-07-30T06:35:22;100603.03;;;18.64;100.00
13348;BME280;6743;49.934;9.138;2022-07-30T06:37:48;100596.41;;;18.67;100.00
13348;BME280;6743;49.934;9.138;2022-07-30T06:40:14;100605.28;;;18.74;100.00
13348;BME280;6743;49.934;9.138;2022-07-30T06:42:40;100609.84;;;18.80;100.00
13348;BME280;6743;49.934;9.138;2022-07-30T06:45:07;100600.72;;;18.81;100.00
13348;BME280;6743;49.934;9.138;2022-07-30T06:47:34;100610.66;;;18.87;100.00
13348;BME280;6743;49.934;9.138;2022-07-30T06:50:00;100605.03;;;18.88;100.00
13348;BME280;6743;49.934;9.138;2022-07-30T06:52:27;100607.53;;;18.90;100.00
13348;BME280;6743;49.934;9.138;2022-07-30T06:54:53;100599.25;;;18.85;100.00
13348;BME280;6743;49.934;9.138;2022-07-30T06:57:19;100607.53;;;18.90;100.00
13348;BME280;6743;49.934;9.138;2022-07-30T06:59:45;100611.25;;;18.89;100.00
13348;BME280;6743;49.934;9.138;2022-07-30T07:02:11;100610.84;;;18.92;100.00
13348;BME280;6743;49.934;9.138;2022-07-30T07:04:37;100610.16;;;19.03;100.00
13348;BME280;6743;49.934;9.138;2022-07-30T07:07:03;100612.00;;;19.09;100.00
13348;BME280;6743;49.934;9.138;2022-07-30T07:09:29;100605.38;;;19.18;100.00
13348;BME280;6743;49.934;9.138;2022-07-30T07:11:55;100599.56;;;19.28;100.00
13348;BME280;6743;49.934;9.138;2022-07-30T07:14:21;100603.47;;;19.32;100.00
13348;BME280;6743;49.934;9.138;2022-07-30T07:16:47;100608.62;;;19.34;100.00
13348;BME280;6743;49.934;9.138;2022-07-30T07:19:13;100606.97;;;19.33;100.00
13348;BME280;6743;49.934;9.138;2022-07-30T07:21:40;100613.41;;;19.25;100.00
13348;BME280;6743;49.934;9.138;2022-07-30T07:24:06;100617.75;;;19.26;100.00
13348;BME280;6743;49.934;9.138;2022-07-30T07:26:34;100614.03;;;19.27;100.00
13348;BME280;6743;49.934;9.138;2022-07-30T07:29:00;100614.41;;;19.31;100.00
13348;BME280;6743;49.934;9.138;2022-07-30T07:31:26;100608.00;;;19.32;100.00
13348;BME280;6743;49.934;9.138;2022-07-30T07:33:52;100618.94;;;19.37;100.00
13348;BME280;6743;49.934;9.138;2022-07-30T07:36:19;100608.78;;;19.45;100.00
13348;BME280;6743;49.934;9.138;2022-07-30T07:38:45;100610.44;;;19.53;100.00
13348;BME280;6743;49.934;9.138;2022-07-30T07:41:11;100615.12;;;19.64;100.00
13348;BME280;6743;49.934;9.138;2022-07-30T07:43:37;100612.19;;;19.72;100.00
13348;BME280;6743;49.934;9.138;2022-07-30T07:46:04;100600.41;;;19.66;100.00
13348;BME280;6743;49.934;9.138;2022-07-30T07:48:31;100610.13;;;19.74;100.00
13348;BME280;6743;49.934;9.138;2022-07-30T07:50:57;100604.34;;;19.64;100.00
13348;BME280;6743;49.934;9.138;2022-07-30T07:53:23;100609.53;;;19.65;100.00
13348;BME280;6743;49.934;9.138;2022-07-30T07:55:50;100598.47;;;19.49;100.00
13348;BME280;6743;49.934;9.138;2022-07-30T07:58:16;100590.75;;;19.52;100.00
13348;BME280;6743;49.934;9.138;2022-07-30T08:00:43;100610.97;;;19.68;100.00
13348;BME280;6743;49.934;9.138;2022-07-30T08:03:09;100604.72;;;19.74;100.00
13348;BME280;6743;49.934;9.138;2022-07-30T08:05:35;100613.59;;;19.81;100.00
13348;BME280;6743;49.934;9.138;2022-07-30T08:08:01;100610.03;;;19.87;100.00
13348;BME280;6743;49.934;9.138;2022-07-30T08:10:27;100617.91;;;19.89;100.00
13348;BME280;6743;49.934;9.138;2022-07-30T08:12:53;100607.78;;;19.78;100.00
13348;BME280;6743;49.934;9.138;2022-07-30T08:15:19;100609.44;;;19.79;100.00
13348;BME280;6743;49.934;9.138;2022-07-30T08:17:46;100612.56;;;19.82;100.00
13348;BME280;6743;49.934;9.138;2022-07-30T08:20:13;100596.44;;;19.76;100.00
13348;BME280;6743;49.934;9.138;2022-07-30T08:22:40;100617.28;;;19.87;100.00
13348;BME280;6743;49.934;9.138;2022-07-30T08:25:07;100610.25;;;19.86;100.00
13348;BME280;6743;49.934;9.138;2022-07-30T08:27:33;100608.75;;;19.96;100.00
13348;BME280;6743;49.934;9.138;2022-07-30T08:30:02;100616.56;;;20.04;100.00
13348;BME280;6743;49.934;9.138;2022-07-30T08:32:28;100614.66;;;20.12;100.00
13348;BME280;6743;49.934;9.138;2022-07-30T08:34:55;100612.72;;;20.19;100.00
13348;BME280;6743;49.934;9.138;2022-07-30T08:37:21;100615.38;;;20.25;100.00
13348;BME280;6743;49.934;9.138;2022-07-30T08:39:47;100611.78;;;20.31;100.00
13348;BME280;6743;49.934;9.138;2022-07-30T08:42:13;100618.00;;;20.38;100.00
13348;BME280;6743;49.934;9.138;2022-07-30T08:44:39;100609.03;;;20.44;100.00
13348;BME280;6743;49.934;9.138;2022-07-30T08:47:06;100610.88;;;20.44;100.00
13348;BME280;6743;49.934;9.138;2022-07-30T08:49:35;100610.00;;;20.50;100.00
13348;BME280;6743;49.934;9.138;2022-07-30T08:52:04;100612.41;;;20.58;100.00
13348;BME280;6743;49.934;9.138;2022-07-30T08:54:33;100614.84;;;20.66;100.00
13348;BME280;6743;49.934;9.138;2022-07-30T08:56:59;100619.78;;;20.69;100.00
13348;BME280;6743;49.934;9.138;2022-07-30T08:59:26;100608.56;;;20.72;100.00
13348;BME280;6743;49.934;9.138;2022-07-30T09:01:52;100614.91;;;20.78;100.00
13348;BME280;6743;49.934;9.138;2022-07-30T09:04:18;100614.62;;;20.86;100.00
13348;BME280;6743;49.934;9.138;2022-07-30T09:06:44;100622.44;;;20.94;100.00
13348;BME280;6743;49.934;9.138;2022-07-30T09:09:10;100618.03;;;21.00;100.00
13348;BME280;6743;49.934;9.138;2022-07-30T09:11:36;100620.63;;;21.06;100.00
13348;BME280;6743;49.934;9.138;2022-07-30T09:14:07;100619.53;;;21.14;100.00
13348;BME280;6743;49.934;9.138;2022-07-30T09:16:34;100626.28;;;21.23;100.00
13348;BME280;6743;49.934;9.138;2022-07-30T09:19:11;100618.34;;;21.28;100.00
13348;BME280;6743;49.934;9.138;2022-07-30T09:21:37;100616.53;;;21.40;100.00
13348;BME280;6743;49.934;9.138;2022-07-30T09:24:05;100622.06;;;21.45;100.00
13348;BME280;6743;49.934;9.138;2022-07-30T09:26:51;100624.09;;;21.50;100.00
13348;BME280;6743;49.934;9.138;2022-07-30T09:29:19;100612.22;;;21.51;100.00
13348;BME280;6743;49.934;9.138;2022-07-30T09:31:53;100624.75;;;21.64;100.00
13348;BME280;6743;49.934;9.138;2022-07-30T09:34:24;100619.50;;;21.69;100.00
13348;BME280;6743;49.934;9.138;2022-07-30T09:36:58;100620.09;;;21.71;100.00
13348;BME280;6743;49.934;9.138;2022-07-30T09:39:29;100621.72;;;21.72;100.00
13348;BME280;6743;49.934;9.138;2022-07-30T09:41:55;100611.19;;;21.82;100.00
13348;BME280;6743;49.934;9.138;2022-07-30T09:44:23;100608.19;;;21.90;100.00
13348;BME280;6743;49.934;9.138;2022-07-30T09:46:49;100601.66;;;21.97;100.00
13348;BME280;6743;49.934;9.138;2022-07-30T09:49:17;100598.03;;;22.04;100.00
13348;BME280;6743;49.934;9.138;2022-07-30T09:51:44;100603.53;;;22.09;100.00
13348;BME280;6743;49.934;9.138;2022-07-30T09:54:10;100597.81;;;22.17;100.00
13348;BME280;6743;49.934;9.138;2022-07-30T09:56:36;100599.97;;;22.26;100.00
13348;BME280;6743;49.934;9.138;2022-07-30T09:59:05;100588.06;;;22.27;100.00
13348;BME280;6743;49.934;9.138;2022-07-30T10:01:49;100599.13;;;22.37;100.00
13348;BME280;6743;49.934;9.138;2022-07-30T10:04:22;100602.19;;;22.41;100.00
13348;BME280;6743;49.934;9.138;2022-07-30T10:06:48;100579.63;;;22.35;100.00
13348;BME280;6743;49.934;9.138;2022-07-30T10:09:23;100586.22;;;22.39;100.00
13348;BME280;6743;49.934;9.138;2022-07-30T10:11:50;100594.22;;;22.46;100.00
13348;BME280;6743;49.934;9.138;2022-07-30T10:14:17;100596.44;;;22.49;100.00
13348;BME280;6743;49.934;9.138;2022-07-30T10:16:43;100598.91;;;22.51;100.00
13348;BME280;6743;49.934;9.138;2022-07-30T10:19:10;100594.31;;;22.51;100.00
13348;BME280;6743;49.934;9.138;2022-07-30T10:21:37;100596.19;;;22.51;100.00
13348;BME280;6743;49.934;9.138;2022-07-30T10:24:04;100593.37;;;22.46;100.00
13348;BME280;6743;49.934;9.138;2022-07-30T10:26:32;100588.81;;;22.46;100.00
13348;BME280;6743;49.934;9.138;2022-07-30T10:29:00;100596.44;;;22.49;100.00
13348;BME280;6743;49.934;9.138;2022-07-30T10:31:26;100594.56;;;22.50;100.00
13348;BME280;6743;49.934;9.138;2022-07-30T10:33:52;100607.63;;;22.53;100.00
13348;BME280;6743;49.934;9.138;2022-07-30T10:36:19;100601.72;;;22.56;100.00
13348;BME280;6743;49.934;9.138;2022-07-30T10:38:46;100597.97;;;22.57;100.00
13348;BME280;6743;49.934;9.138;2022-07-30T10:41:20;100589.75;;;22.52;100.00
13348;BME280;6743;49.934;9.138;2022-07-30T10:46:54;100598.66;;;22.64;100.00
13348;BME280;6743;49.934;9.138;2022-07-30T10:49:25;100602.56;;;22.68;100.00
13348;BME280;6743;49.934;9.138;2022-07-30T10:51:52;100602.72;;;22.73;100.00
13348;BME280;6743;49.934;9.138;2022-07-30T10:54:35;100596.94;;;22.81;100.00
13348;BME280;6743;49.934;9.138;2022-07-30T10:57:06;100590.59;;;22.87;100.00
13348;BME280;6743;49.934;9.138;2022-07-30T11:00:09;100605.03;;;22.93;100.00
13348;BME280;6743;49.934;9.138;2022-07-30T11:02:36;100586.44;;;22.96;100.00
13348;BME280;6743;49.934;9.138;2022-07-30T11:05:23;100581.97;;;23.02;100.00
13348;BME280;6743;49.934;9.138;2022-07-30T11:07:49;100584.28;;;23.10;100.00
13348;BME280;6743;49.934;9.138;2022-07-30T11:10:33;100579.00;;;23.15;100.00
13348;BME280;6743;49.934;9.138;2022-07-30T11:13:00;100573.31;;;23.16;100.00
13348;BME280;6743;49.934;9.138;2022-07-30T11:15:51;100575.34;;;23.21;100.00
13348;BME280;6743;49.934;9.138;2022-07-30T11:18:20;100578.88;;;23.22;100.00
13348;BME280;6743;49.934;9.138;2022-07-30T11:21:13;100587.53;;;23.24;100.00
13348;BME280;6743;49.934;9.138;2022-07-30T11:23:40;100583.53;;;23.26;100.00
13348;BME280;6743;49.934;9.138;2022-07-30T11:26:07;100587.44;;;23.30;100.00
13348;BME280;6743;49.934;9.138;2022-07-30T11:28:35;100586.72;;;23.35;100.00
13348;BME280;6743;49.934;9.138;2022-07-30T11:31:02;100592.81;;;23.42;100.00
13348;BME280;6743;49.934;9.138;2022-07-30T11:33:29;100581.03;;;23.48;100.00
13348;BME280;6743;49.934;9.138;2022-07-30T11:36:07;100577.34;;;23.54;100.00
13348;BME280;6743;49.934;9.138;2022-07-30T11:38:52;100574.25;;;23.62;100.00
13348;BME280;6743;49.934;9.138;2022-07-30T11:41:19;100577.66;;;23.69;100.00
13348;BME280;6743;49.934;9.138;2022-07-30T11:43:45;100570.66;;;23.73;100.00
13348;BME280;6743;49.934;9.138;2022-07-30T11:46:12;100552.75;;;23.72;100.00
13348;BME280;6743;49.934;9.138;2022-07-30T11:48:41;100579.31;;;23.87;100.00
13348;BME280;6743;49.934;9.138;2022-07-30T11:51:08;100561.41;;;23.86;100.00
13348;BME280;6743;49.934;9.138;2022-07-30T11:53:34;100563.16;;;23.92;100.00
13348;BME280;6743;49.934;9.138;2022-07-30T11:56:01;100563.97;;;23.92;100.00
13348;BME280;6743;49.934;9.138;2022-07-30T11:58:30;100555.84;;;23.92;100.00
13348;BME280;6743;49.934;9.138;2022-07-30T12:00:58;100562.00;;;23.88;100.00
13348;BME280;6743;49.934;9.138;2022-07-30T12:03:27;100569.28;;;23.87;100.00
13348;BME280;6743;49.934;9.138;2022-07-30T12:05:54;100566.34;;;23.89;100.00
13348;BME280;6743;49.934;9.138;2022-07-30T12:08:21;100554.59;;;23.83;100.00
13348;BME280;6743;49.934;9.138;2022-07-30T12:10:55;100554.09;;;23.86;100.00
13348;BME280;6743;49.934;9.138;2022-07-30T12:13:22;100559.03;;;23.89;100.00
13348;BME280;6743;49.934;9.138;2022-07-30T12:15:48;100559.88;;;23.90;100.00
13348;BME280;6743;49.934;9.138;2022-07-30T12:18:22;100562.06;;;23.93;100.00
13348;BME280;6743;49.934;9.138;2022-07-30T12:20:53;100556.47;;;24.00;100.00
13348;BME280;6743;49.934;9.138;2022-07-30T12:23:19;100553.72;;;24.11;100.00
13348;BME280;6743;49.934;9.138;2022-07-30T12:25:45;100554.72;;;24.22;100.00
13348;BME280;6743;49.934;9.138;2022-07-30T12:28:19;100550.28;;;24.32;100.00
13348;BME280;6743;49.934;9.138;2022-07-30T12:30:45;100554.72;;;24.39;97.06
13348;BME280;6743;49.934;9.138;2022-07-30T12:33:11;100550.84;;;24.51;96.50
13348;BME280;6743;49.934;9.138;2022-07-30T12:35:42;100547.94;;;24.58;93.26
13348;BME280;6743;49.934;9.138;2022-07-30T12:38:08;100547.47;;;24.61;93.83
13348;BME280;6743;49.934;9.138;2022-07-30T12:40:49;100541.28;;;24.65;94.99
13348;BME280;6743;49.934;9.138;2022-07-30T12:43:15;100543.81;;;24.72;97.90
13348;BME280;6743;49.934;9.138;2022-07-30T12:45:44;100539.59;;;24.81;92.39
13348;BME280;6743;49.934;9.138;2022-07-30T12:48:10;100539.16;;;24.89;89.08
13348;BME280;6743;49.934;9.138;2022-07-30T12:50:37;100538.69;;;24.92;89.85
13348;BME280;6743;49.934;9.138;2022-07-30T12:53:03;100548.31;;;25.05;87.62
13348;BME280;6743;49.934;9.138;2022-07-30T12:55:31;100538.63;;;25.09;91.90
13348;BME280;6743;49.934;9.138;2022-07-30T12:57:59;100540.94;;;25.22;87.33